createdAt,value
2023-03-24T00:00:11.670Z,99538.59
2023-03-24T00:02:42.076Z,99541.06
2023-03-24T00:05:11.850Z,99532.16
2023-03-24T00:07:39.772Z,99528.38
2023-03-24T00:10:09.709Z,99517.28
2023-03-24T00:12:38.474Z,99506.25
2023-03-24T00:15:07.676Z,99510.47
2023-03-24T00:17:36.021Z,99503.66
2023-03-24T00:20:11.113Z,99502.88
2023-03-24T00:22:42.245Z,99487.78
2023-03-24T00:25:12.017Z,99496.31
2023-03-24T00:27:39.560Z,99488.84
2023-03-24T00:30:10.025Z,99488.25
2023-03-24T00:32:38.753Z,99485.63
2023-03-24T00:35:11.118Z,99482.66
2023-03-24T00:37:39.370Z,99473.16
2023-03-24T00:40:13.924Z,99467.28
2023-03-24T00:42:41.472Z,99458.44
2023-03-24T00:45:09.389Z,99452.75
2023-03-24T00:47:39.288Z,99443.75
2023-03-24T00:50:08.970Z,99435.25
2023-03-24T00:52:36.008Z,99432.31
2023-03-24T00:55:05.515Z,99423.91
2023-03-24T00:57:35.991Z,99422.59
2023-03-24T01:00:16.818Z,99412.94
2023-03-24T01:02:46.478Z,99423.16
2023-03-24T01:05:14.986Z,99411.41
2023-03-24T01:07:43.282Z,99407.59
2023-03-24T01:10:13.445Z,99414.19
2023-03-24T01:12:40.884Z,99421.97
2023-03-24T01:15:21.942Z,99424.41
2023-03-24T01:17:48.773Z,99420.88
2023-03-24T01:20:16.152Z,99420.88
2023-03-24T01:22:44.863Z,99426.56
2023-03-24T01:25:16.863Z,99425.00
2023-03-24T01:27:45.359Z,99414.53
2023-03-24T01:30:17.914Z,99413.34
2023-03-24T01:32:44.599Z,99411.38
2023-03-24T01:35:12.200Z,99407.81
2023-03-24T01:37:39.441Z,99412.13
2023-03-24T01:40:09.708Z,99403.78
2023-03-24T01:42:37.710Z,99391.66
2023-03-24T01:45:38.628Z,99398.22
2023-03-24T01:48:14.545Z,99401.38
2023-03-24T01:50:46.978Z,99403.09
2023-03-24T01:53:15.390Z,99404.44
2023-03-24T01:55:45.420Z,99393.09
2023-03-24T01:58:14.418Z,99394.88
2023-03-24T02:00:52.662Z,99384.72
2023-03-24T02:03:40.179Z,99382.34
2023-03-24T02:06:08.799Z,99382.47
2023-03-24T02:08:49.937Z,99373.75
2023-03-24T02:11:16.735Z,99375.97
2023-03-24T02:13:50.818Z,99376.56
2023-03-24T02:16:53.266Z,99371.19
2023-03-24T02:19:44.866Z,99362.44
2023-03-24T02:22:20.765Z,99354.94
2023-03-24T02:25:09.221Z,99355.09
2023-03-24T02:27:58.185Z,99356.97
2023-03-24T02:30:43.753Z,99340.78
2023-03-24T02:33:49.323Z,99356.84
2023-03-24T02:36:38.854Z,99339.31
2023-03-24T02:39:11.456Z,99341.31
2023-03-24T02:41:53.806Z,99332.53
2023-03-24T02:44:50.171Z,99332.16
2023-03-24T02:47:29.224Z,99321.81
2023-03-24T02:50:31.740Z,99326.19
2023-03-24T02:53:13.963Z,99331.53
2023-03-24T02:56:10.318Z,99333.31
2023-03-24T02:58:43.550Z,99333.59
2023-03-24T03:01:19.136Z,99340.34
2023-03-24T03:04:08.960Z,99327.72
2023-03-24T03:06:42.725Z,99335.44
2023-03-24T03:09:16.247Z,99331.25
2023-03-24T03:11:47.629Z,99327.31
2023-03-24T03:14:44.139Z,99323.75
2023-03-24T03:17:18.722Z,99325.63
2023-03-24T03:19:50.240Z,99333.97
2023-03-24T03:22:23.138Z,99330.31
2023-03-24T03:24:55.217Z,99330.31
2023-03-24T03:27:29.326Z,99337.25
2023-03-24T03:30:04.434Z,99339.31
2023-03-24T03:32:34.820Z,99339.59
2023-03-24T03:35:08.110Z,99345.53
2023-03-24T03:37:51.209Z,99339.81
2023-03-24T03:40:23.325Z,99354.66
2023-03-24T03:42:55.880Z,99352.22
2023-03-24T03:45:22.838Z,99355.16
2023-03-24T03:47:50.767Z,99355.28
2023-03-24T03:50:17.846Z,99354.44
2023-03-24T03:52:44.728Z,99366.25
2023-03-24T03:55:12.501Z,99379.41
2023-03-24T03:57:41.321Z,99366.09
2023-03-24T04:00:16.728Z,99373.66
2023-03-24T04:03:14.607Z,99370.78
2023-03-24T04:06:04.874Z,99378.25
2023-03-24T04:08:53.112Z,99389.06
2023-03-24T04:11:40.618Z,99395.03
2023-03-24T04:14:35.571Z,99416.38
2023-03-24T04:17:46.017Z,99397.88
2023-03-24T04:20:32.746Z,99406.22
2023-03-24T04:23:14.823Z,99416.44
2023-03-24T04:25:58.556Z,99412.41
2023-03-24T04:28:52.194Z,99425.44
2023-03-24T04:31:34.054Z,99423.75
2023-03-24T04:34:12.131Z,99432.88
2023-03-24T04:37:04.057Z,99427.84
2023-03-24T04:39:46.099Z,99423.88
2023-03-24T04:42:23.435Z,99430.13
2023-03-24T04:44:51.652Z,99426.91
2023-03-24T04:47:53.604Z,99420.47
2023-03-24T04:50:40.746Z,99417.22
2023-03-24T04:53:13.393Z,99414.31
2023-03-24T04:55:49.665Z,99408.06
2023-03-24T04:58:23.188Z,99400.50
2023-03-24T05:01:17.328Z,99394.31
2023-03-24T05:03:55.272Z,99393.56
2023-03-24T05:06:22.034Z,99390.34
2023-03-24T05:08:49.025Z,99381.50
2023-03-24T05:11:16.170Z,99383.69
2023-03-24T05:13:49.494Z,99387.19
2023-03-24T05:16:16.304Z,99377.84
2023-03-24T05:18:51.684Z,99383.53
2023-03-24T05:21:20.538Z,99395.97
2023-03-24T05:23:47.354Z,99396.44
2023-03-24T05:26:14.123Z,99405.06
2023-03-24T05:28:58.546Z,99402.69
2023-03-24T05:31:25.531Z,99404.03
2023-03-24T05:34:14.622Z,99414.81
2023-03-24T05:36:50.727Z,99412.56
2023-03-24T05:39:20.822Z,99414.47
2023-03-24T05:41:56.980Z,99409.31
2023-03-24T05:44:23.742Z,99404.09
2023-03-24T05:47:16.095Z,99411.91
2023-03-24T05:49:43.412Z,99402.66
2023-03-24T05:52:11.795Z,99416.00
2023-03-24T05:54:40.816Z,99409.78
2023-03-24T05:57:16.630Z,99413.72
2023-03-24T06:00:17.168Z,99411.28
2023-03-24T06:02:56.857Z,99407.59
2023-03-24T06:05:27.907Z,99398.97
2023-03-24T06:07:58.476Z,99410.28
2023-03-24T06:10:27.843Z,99411.03
2023-03-24T06:12:56.008Z,99408.75
2023-03-24T06:15:27.945Z,99406.22
2023-03-24T06:18:01.048Z,99413.00
2023-03-24T06:20:33.792Z,99424.88
2023-03-24T06:23:04.665Z,99426.50
2023-03-24T06:25:38.806Z,99412.72
2023-03-24T06:28:22.700Z,99417.59
2023-03-24T06:30:50.318Z,99430.28
2023-03-24T06:33:25.841Z,99414.22
2023-03-24T06:35:54.230Z,99421.38
2023-03-24T06:38:22.205Z,99411.91
2023-03-24T06:40:49.097Z,99415.09
2023-03-24T06:43:16.119Z,99419.69
2023-03-24T06:45:45.132Z,99424.09
2023-03-24T06:48:19.048Z,99430.81
2023-03-24T06:50:46.366Z,99435.19
2023-03-24T06:53:13.806Z,99442.78
2023-03-24T06:55:41.666Z,99441.34
2023-03-24T06:58:10.402Z,99458.09
2023-03-24T07:00:55.256Z,99449.72
2023-03-24T07:03:43.310Z,99458.81
2023-03-24T07:06:15.876Z,99456.56
2023-03-24T07:08:44.640Z,99461.38
2023-03-24T07:11:12.043Z,99461.16
2023-03-24T07:13:47.448Z,99463.56
2023-03-24T07:16:16.174Z,99469.81
2023-03-24T07:18:43.536Z,99472.41
2023-03-24T07:21:10.303Z,99469.47
2023-03-24T07:23:37.350Z,99462.81
2023-03-24T07:26:20.584Z,99467.34
2023-03-24T07:28:47.607Z,99462.75
2023-03-24T07:31:24.623Z,99459.25
2023-03-24T07:34:01.045Z,99460.06
2023-03-24T07:36:28.812Z,99459.41
2023-03-24T07:38:57.397Z,99457.94
2023-03-24T07:41:31.291Z,99457.00
2023-03-24T07:44:02.728Z,99454.59
2023-03-24T07:46:48.619Z,99454.59
2023-03-24T07:49:19.411Z,99451.38
2023-03-24T07:52:07.400Z,99457.06
2023-03-24T07:54:39.992Z,99466.25
2023-03-24T07:57:08.949Z,99463.94
2023-03-24T07:59:37.871Z,99472.03
2023-03-24T08:02:31.097Z,99464.81
2023-03-24T08:05:13.772Z,99469.53
2023-03-24T08:07:58.068Z,99457.41
2023-03-24T08:10:27.352Z,99457.28
2023-03-24T08:12:54.919Z,99452.94
2023-03-24T08:15:22.262Z,99455.94
2023-03-24T08:17:50.239Z,99463.00
2023-03-24T08:20:19.408Z,99467.69
2023-03-24T08:22:53.986Z,99471.41
2023-03-24T08:25:22.589Z,99471.81
2023-03-24T08:27:49.233Z,99475.47
2023-03-24T08:30:20.045Z,99473.84
2023-03-24T08:32:49.724Z,99475.91
2023-03-24T08:35:19.317Z,99468.63
2023-03-24T08:37:46.757Z,99470.47
2023-03-24T08:40:19.072Z,99476.97
2023-03-24T08:42:52.893Z,99474.66
2023-03-24T08:45:21.504Z,99471.75
2023-03-24T08:47:50.378Z,99476.72
2023-03-24T08:50:20.253Z,99472.22
2023-03-24T08:52:48.109Z,99477.88
2023-03-24T08:55:16.458Z,99474.06
2023-03-24T08:57:43.364Z,99470.94
2023-03-24T09:00:14.702Z,99480.88
2023-03-24T09:02:49.360Z,99473.09
2023-03-24T09:05:22.742Z,99473.19
2023-03-24T09:07:53.692Z,99476.97
2023-03-24T09:10:22.492Z,99479.59
2023-03-24T09:12:49.946Z,99483.72
2023-03-24T09:15:17.004Z,99480.22
2023-03-24T09:17:44.283Z,99499.97
2023-03-24T09:20:14.402Z,99484.09
2023-03-24T09:22:43.932Z,99491.81
2023-03-24T09:25:13.671Z,99498.09
2023-03-24T09:27:40.365Z,99497.13
2023-03-24T09:30:09.531Z,99480.63
2023-03-24T09:32:36.948Z,99495.22
2023-03-24T09:35:05.259Z,99490.34
2023-03-24T09:37:32.611Z,99498.81
2023-03-24T09:40:01.377Z,99496.16
2023-03-24T09:42:33.372Z,99489.75
2023-03-24T09:45:24.012Z,99486.78
2023-03-24T09:47:57.961Z,99486.81
2023-03-24T09:50:33.047Z,99487.34
2023-03-24T09:53:07.193Z,99492.13
2023-03-24T09:55:39.222Z,99494.59
2023-03-24T09:58:08.375Z,99492.94
2023-03-24T10:00:36.699Z,99499.50
2023-03-24T10:03:23.656Z,99493.63
2023-03-24T10:05:58.277Z,99505.56
2023-03-24T10:08:34.149Z,99502.53
2023-03-24T10:11:43.121Z,99500.56
2023-03-24T10:14:21.448Z,99507.34
2023-03-24T10:17:02.731Z,99505.97
2023-03-24T10:20:01.335Z,99508.66
2023-03-24T10:22:42.543Z,99522.19
2023-03-24T10:25:26.804Z,99518.66
2023-03-24T10:28:00.528Z,99528.13
2023-03-24T10:30:34.680Z,99516.97
2023-03-24T10:33:02.158Z,99520.88
2023-03-24T10:35:42.057Z,99521.16
2023-03-24T10:38:20.934Z,99526.47
2023-03-24T10:40:49.368Z,99537.09
2023-03-24T10:43:18.813Z,99529.94
2023-03-24T10:45:50.266Z,99527.97
2023-03-24T10:48:40.491Z,99535.16
2023-03-24T10:51:13.769Z,99541.06
2023-03-24T10:53:40.733Z,99530.13
2023-03-24T10:56:08.000Z,99530.78
2023-03-24T10:58:43.021Z,99609.53
2023-03-24T11:01:25.158Z,99610.66
2023-03-24T11:03:52.135Z,99610.88
2023-03-24T11:06:21.057Z,99611.47
2023-03-24T11:08:47.997Z,99605.56
2023-03-24T11:11:28.138Z,99610.03
2023-03-24T11:13:58.343Z,99607.47
2023-03-24T11:16:43.948Z,99607.94
2023-03-24T11:19:32.605Z,99616.56
2023-03-24T11:22:04.032Z,99609.16
2023-03-24T11:24:34.788Z,99595.56
2023-03-24T11:27:03.123Z,99593.16
2023-03-24T11:29:33.592Z,99600.81
2023-03-24T11:32:11.405Z,99607.28
2023-03-24T11:34:42.325Z,99600.28
2023-03-24T11:37:15.844Z,99601.16
2023-03-24T11:39:44.177Z,99603.19
2023-03-24T11:42:10.956Z,99597.66
2023-03-24T11:44:37.997Z,99597.09
2023-03-24T11:47:24.332Z,99603.66
2023-03-24T11:50:18.757Z,99601.47
2023-03-24T11:52:53.726Z,99607.25
2023-03-24T11:55:43.758Z,99612.66
2023-03-24T11:58:43.903Z,99605.56
2023-03-24T12:01:19.794Z,99603.59
2023-03-24T12:04:11.318Z,99596.00
2023-03-24T12:07:12.609Z,99596.13
2023-03-24T12:10:06.254Z,99590.09
2023-03-24T12:13:37.982Z,99592.66
2023-03-24T12:16:26.314Z,99584.94
2023-03-24T12:19:15.004Z,99590.22
2023-03-24T12:22:23.031Z,99584.38
2023-03-24T12:25:06.257Z,99597.28
2023-03-24T12:27:43.048Z,99584.34
2023-03-24T12:30:25.808Z,99584.69
2023-03-24T12:33:11.112Z,99580.44
2023-03-24T12:35:55.317Z,99574.84
2023-03-24T12:38:30.582Z,99567.25
2023-03-24T12:41:12.669Z,99572.59
2023-03-24T12:44:16.400Z,99572.66
2023-03-24T12:46:58.960Z,99577.09
2023-03-24T12:49:41.937Z,99584.16
2023-03-24T12:52:28.194Z,99585.72
2023-03-24T12:55:08.106Z,99574.69
2023-03-24T12:57:49.834Z,99577.16
2023-03-24T13:00:31.206Z,99576.78
2023-03-24T13:03:01.988Z,99590.53
2023-03-24T13:05:36.768Z,99571.38
2023-03-24T13:08:11.618Z,99571.69
2023-03-24T13:10:42.111Z,99570.16
2023-03-24T13:13:31.928Z,99566.75
2023-03-24T13:16:03.297Z,99565.41
2023-03-24T13:18:39.086Z,99572.16
2023-03-24T13:21:11.764Z,99582.00
2023-03-24T13:24:09.376Z,99579.75
2023-03-24T13:26:39.966Z,99580.84
2023-03-24T13:29:38.389Z,99573.44
2023-03-24T13:32:25.490Z,99581.25
2023-03-24T13:35:29.921Z,99581.19
2023-03-24T13:38:04.423Z,99571.25
2023-03-24T13:40:32.586Z,99579.44
2023-03-24T13:43:09.875Z,99579.00
2023-03-24T13:45:43.173Z,99564.28
2023-03-24T13:48:09.786Z,99568.88
2023-03-24T13:50:42.645Z,99569.94
2023-03-24T13:53:16.425Z,99567.59
2023-03-24T13:55:51.087Z,99564.28
2023-03-24T13:58:43.842Z,99548.63
2023-03-24T14:01:11.006Z,99550.09
2023-03-24T14:03:43.251Z,99556.03
2023-03-24T14:06:11.602Z,99553.81
2023-03-24T14:08:53.207Z,99548.66
2023-03-24T14:11:43.044Z,99551.31
2023-03-24T14:14:15.705Z,99539.97
2023-03-24T14:17:02.219Z,99534.50
2023-03-24T14:19:39.142Z,99551.63
2023-03-24T14:22:13.398Z,99545.97
2023-03-24T14:24:42.632Z,99548.16
2023-03-24T14:27:30.609Z,99544.31
2023-03-24T14:30:01.910Z,99542.09
2023-03-24T14:32:30.272Z,99535.00
2023-03-24T14:34:59.122Z,99544.31
2023-03-24T14:37:29.206Z,99535.97
2023-03-24T14:39:58.064Z,99545.75
2023-03-24T14:42:33.789Z,99520.09
2023-03-24T14:45:41.550Z,99552.88
2023-03-24T14:48:56.437Z,99555.88
2023-03-24T14:51:39.404Z,99548.25
2023-03-24T14:54:14.136Z,99549.75
2023-03-24T14:56:45.473Z,99542.47
2023-03-24T14:59:21.938Z,99548.28
2023-03-24T15:01:56.610Z,99536.81
2023-03-24T15:04:23.490Z,99532.59
2023-03-24T15:06:51.885Z,99541.69
2023-03-24T15:09:18.756Z,99528.47
2023-03-24T15:11:47.927Z,99539.81
2023-03-24T15:14:24.320Z,99527.25
2023-03-24T15:17:04.422Z,99528.88
2023-03-24T15:19:31.465Z,99523.34
2023-03-24T15:22:11.572Z,99528.72
2023-03-24T15:24:41.515Z,99525.38
2023-03-24T15:27:08.183Z,99527.16
2023-03-24T15:29:36.822Z,99519.97
2023-03-24T15:32:04.746Z,99523.16
2023-03-24T15:34:46.258Z,99518.34
2023-03-24T15:37:22.122Z,99520.06
2023-03-24T15:40:01.865Z,99518.94
2023-03-24T15:42:44.788Z,99509.34
2023-03-24T15:45:28.593Z,99514.78
2023-03-24T15:47:56.237Z,99507.03
2023-03-24T15:50:37.590Z,99510.22
2023-03-24T15:53:26.655Z,99505.13
2023-03-24T15:56:23.372Z,99512.31
2023-03-24T15:58:52.790Z,99502.50
2023-03-24T16:01:35.892Z,99500.78
2023-03-24T16:04:11.854Z,99502.53
2023-03-24T16:06:42.988Z,99511.09
2023-03-24T16:09:14.357Z,99511.59
2023-03-24T16:11:42.767Z,99505.44
2023-03-24T16:14:29.866Z,99498.09
2023-03-24T16:16:59.190Z,99505.13
2023-03-24T16:19:26.209Z,99509.16
2023-03-24T16:21:54.863Z,99502.75
2023-03-24T16:24:22.529Z,99504.94
2023-03-24T16:26:50.106Z,99510.66
2023-03-24T16:29:22.680Z,99506.56
2023-03-24T16:31:51.949Z,99509.75
2023-03-24T16:34:21.146Z,99512.81
2023-03-24T16:36:49.747Z,99505.50
2023-03-24T16:39:19.234Z,99509.25
2023-03-24T16:41:46.367Z,99509.44
2023-03-24T16:44:13.595Z,99510.94
2023-03-24T16:46:41.059Z,99509.94
2023-03-24T16:49:11.510Z,99506.19
2023-03-24T16:51:38.162Z,99510.25
2023-03-24T16:54:05.553Z,99517.44
2023-03-24T16:56:32.161Z,99514.44
2023-03-24T16:58:59.149Z,99518.16
2023-03-24T17:01:33.374Z,99522.16
2023-03-24T17:04:02.916Z,99526.47
2023-03-24T17:06:32.583Z,99532.31
2023-03-24T17:08:59.959Z,99528.00
2023-03-24T17:11:36.655Z,99531.69
2023-03-24T17:14:04.677Z,99538.50
2023-03-24T17:16:36.350Z,99539.53
2023-03-24T17:19:04.963Z,99541.53
2023-03-24T17:21:34.384Z,99546.31
2023-03-24T17:24:02.095Z,99549.03
2023-03-24T17:26:30.849Z,99566.47
2023-03-24T17:28:58.777Z,99573.50
2023-03-24T17:31:25.834Z,99569.88
2023-03-24T17:33:52.564Z,99564.81
2023-03-24T17:36:19.318Z,99573.41
2023-03-24T17:38:48.962Z,99580.56
2023-03-24T17:41:15.955Z,99584.69
2023-03-24T17:43:47.787Z,99588.22
2023-03-24T17:46:15.362Z,99591.78
2023-03-24T17:48:44.889Z,99596.56
2023-03-24T17:51:12.569Z,99598.59
2023-03-24T17:53:39.313Z,99603.72
2023-03-24T17:56:07.043Z,99614.50
2023-03-24T17:58:35.473Z,99612.09
2023-03-24T18:01:08.560Z,99612.94
2023-03-24T18:03:37.957Z,99621.75
2023-03-24T18:06:11.285Z,99620.34
2023-03-24T18:08:39.023Z,99621.75
2023-03-24T18:11:07.866Z,99622.47
2023-03-24T18:13:34.849Z,99614.22
2023-03-24T18:16:13.227Z,99618.41
2023-03-24T18:18:47.501Z,99618.47
2023-03-24T18:21:15.485Z,99613.56
2023-03-24T18:23:42.529Z,99605.94
2023-03-24T18:26:09.463Z,99612.31
2023-03-24T18:28:37.968Z,99610.72
2023-03-24T18:31:20.211Z,99609.75
2023-03-24T18:33:57.555Z,99616.63
2023-03-24T18:36:29.533Z,99619.19
2023-03-24T18:39:09.722Z,99619.75
2023-03-24T18:41:37.562Z,99622.66
2023-03-24T18:44:07.124Z,99625.44
2023-03-24T18:46:36.572Z,99624.88
2023-03-24T18:49:04.084Z,99613.97
2023-03-24T18:51:32.989Z,99635.44
2023-03-24T18:53:59.796Z,99629.69
2023-03-24T18:56:26.691Z,99628.75
2023-03-24T18:58:53.585Z,99626.91
2023-03-24T19:01:24.855Z,99618.31
2023-03-24T19:03:52.701Z,99627.56
2023-03-24T19:06:20.106Z,99629.38
2023-03-24T19:08:51.749Z,99630.84
2023-03-24T19:11:19.046Z,99639.28
2023-03-24T19:13:49.610Z,99637.91
2023-03-24T19:16:18.108Z,99647.06
2023-03-24T19:18:45.810Z,99643.09
2023-03-24T19:21:12.933Z,99641.72
2023-03-24T19:23:40.003Z,99641.72
2023-03-24T19:26:07.181Z,99647.72
2023-03-24T19:28:35.552Z,99649.34
2023-03-24T19:31:09.546Z,99650.84
2023-03-24T19:33:37.398Z,99664.69
2023-03-24T19:36:06.360Z,99657.16
2023-03-24T19:38:33.566Z,99653.66
2023-03-24T19:41:09.098Z,99661.63
2023-03-24T19:43:36.702Z,99654.97
2023-03-24T19:46:04.706Z,99662.59
2023-03-24T19:48:31.419Z,99682.53
2023-03-24T19:50:58.153Z,99696.84
2023-03-24T19:53:26.614Z,99706.59
2023-03-24T19:55:57.362Z,99709.91
2023-03-24T19:58:24.765Z,99719.13
2023-03-24T20:00:52.272Z,99735.84
2023-03-24T20:03:19.264Z,99732.16
2023-03-24T20:05:46.229Z,99695.84
2023-03-24T20:08:13.458Z,99669.75
2023-03-24T20:10:40.369Z,99654.09
2023-03-24T20:13:09.214Z,99653.09
2023-03-24T20:15:36.311Z,99656.38
2023-03-24T20:18:03.464Z,99641.44
2023-03-24T20:20:30.563Z,99639.53
2023-03-24T20:23:00.728Z,99637.41
2023-03-24T20:25:28.730Z,99634.09
2023-03-24T20:27:55.883Z,99638.34
2023-03-24T20:30:24.124Z,99655.13
2023-03-24T20:32:54.810Z,99660.88
2023-03-24T20:35:22.472Z,99643.97
2023-03-24T20:37:49.264Z,99637.59
2023-03-24T20:40:16.677Z,99651.38
2023-03-24T20:42:43.332Z,99644.47
2023-03-24T20:45:11.536Z,99669.78
2023-03-24T20:47:38.736Z,99672.00
2023-03-24T20:50:06.489Z,99657.47
2023-03-24T20:52:35.088Z,99673.47
2023-03-24T20:55:05.720Z,99676.69
2023-03-24T20:57:33.587Z,99677.06
2023-03-24T21:00:00.610Z,99692.38
2023-03-24T21:02:31.686Z,99738.44
2023-03-24T21:04:58.607Z,99763.25
2023-03-24T21:07:26.506Z,99768.81
2023-03-24T21:09:53.532Z,99753.16
2023-03-24T21:12:21.903Z,99745.50
2023-03-24T21:14:49.038Z,99729.34
2023-03-24T21:17:18.721Z,99719.41
2023-03-24T21:19:46.798Z,99702.41
2023-03-24T21:22:15.256Z,99704.59
2023-03-24T21:24:48.462Z,99696.53
2023-03-24T21:27:16.036Z,99693.81
2023-03-24T21:29:42.801Z,99691.94
2023-03-24T21:32:10.490Z,99700.28
2023-03-24T21:34:37.491Z,99692.19
2023-03-24T21:37:04.115Z,99696.78
2023-03-24T21:39:30.852Z,99705.13
2023-03-24T21:41:57.617Z,99710.25
2023-03-24T21:44:24.922Z,99717.00
2023-03-24T21:46:51.554Z,99716.72
2023-03-24T21:49:19.101Z,99720.72
2023-03-24T21:51:46.655Z,99716.97
2023-03-24T21:54:14.906Z,99733.38
2023-03-24T21:56:42.008Z,99726.09
2023-03-24T21:59:09.906Z,99740.38
2023-03-24T22:01:36.930Z,99726.13
2023-03-24T22:04:04.640Z,99708.63
2023-03-24T22:06:37.302Z,99701.38
2023-03-24T22:09:10.228Z,99700.81
2023-03-24T22:11:42.530Z,99706.19
2023-03-24T22:14:09.553Z,99701.38
2023-03-24T22:16:36.671Z,99708.38
2023-03-24T22:19:03.468Z,99706.22
2023-03-24T22:21:30.080Z,99716.44
2023-03-24T22:23:56.890Z,99714.56
2023-03-24T22:26:23.700Z,99719.13
2023-03-24T22:28:50.784Z,99711.28
2023-03-24T22:31:17.732Z,99717.00
2023-03-24T22:33:44.786Z,99721.31
2023-03-24T22:36:11.860Z,99720.22
2023-03-24T22:38:38.965Z,99725.63
2023-03-24T22:41:07.808Z,99725.31
2023-03-24T22:43:35.718Z,99730.44
2023-03-24T22:46:03.583Z,99729.09
2023-03-24T22:48:32.914Z,99728.78
2023-03-24T22:50:59.509Z,99717.22
2023-03-24T22:53:26.236Z,99714.28
2023-03-24T22:55:53.188Z,99714.03
2023-03-24T22:58:20.330Z,99722.59
2023-03-24T23:00:48.944Z,99726.59
2023-03-24T23:03:16.575Z,99719.56
2023-03-24T23:05:45.298Z,99723.56
2023-03-24T23:08:14.244Z,99726.81
2023-03-24T23:10:43.244Z,99731.44
2023-03-24T23:13:11.750Z,99733.84
2023-03-24T23:15:39.605Z,99734.31
2023-03-24T23:18:06.241Z,99732.25
2023-03-24T23:20:33.140Z,99738.44
2023-03-24T23:23:01.137Z,99749.47
2023-03-24T23:25:31.079Z,99746.59
2023-03-24T23:27:58.252Z,99755.53
2023-03-24T23:30:25.267Z,99764.06
2023-03-24T23:32:52.206Z,99757.81
2023-03-24T23:35:19.004Z,99759.69
2023-03-24T23:37:46.460Z,99762.28
2023-03-24T23:40:15.464Z,99755.78
2023-03-24T23:42:47.833Z,99764.97
2023-03-24T23:45:19.809Z,99766.06
2023-03-24T23:47:50.160Z,99755.06
2023-03-24T23:50:18.574Z,99758.81
2023-03-24T23:52:45.370Z,99753.75
2023-03-24T23:55:17.800Z,99758.00
2023-03-24T23:57:45.528Z,99759.88
